sensor_id;sensor_type;location;lat;lon;timestamp;temperature;humidity
75985;DHT22;65033;44.660;37.758;2023-10-31T00:00:52;13.98;67.10
75985;DHT22;65033;44.660;37.758;2023-10-31T00:01:57;13.96;67.27
75985;DHT22;65033;44.660;37.758;2023-10-31T00:03:01;13.90;66.95
75985;DHT22;65033;44.660;37.758;2023-10-31T00:04:05;13.81;67.51
75985;DHT22;65033;44.660;37.758;2023-10-31T00:05:08;13.76;67.43
75985;DHT22;65033;44.660;37.758;2023-10-31T00:06:12;13.70;67.75
75985;DHT22;65033;44.660;37.758;2023-10-31T00:07:16;13.63;67.82
75985;DHT22;65033;44.660;37.758;2023-10-31T00:08:19;13.61;68.81
75985;DHT22;65033;44.660;37.758;2023-10-31T00:09:25;13.56;68.55
75985;DHT22;65033;44.660;37.758;2023-10-31T00:10:28;13.55;68.48
75985;DHT22;65033;44.660;37.758;2023-10-31T00:11:32;13.53;68.60
75985;DHT22;65033;44.660;37.758;2023-10-31T00:12:36;13.62;67.98
75985;DHT22;65033;44.660;37.758;2023-10-31T00:13:39;13.63;67.91
75985;DHT22;65033;44.660;37.758;2023-10-31T00:14:43;13.69;67.32
75985;DHT22;65033;44.660;37.758;2023-10-31T00:15:47;13.70;67.29
75985;DHT22;65033;44.660;37.758;2023-10-31T00:16:50;13.71;67.07
75985;DHT22;65033;44.660;37.758;2023-10-31T00:17:54;13.86;66.31
75985;DHT22;65033;44.660;37.758;2023-10-31T00:18:58;14.05;65.75
75985;DHT22;65033;44.660;37.758;2023-10-31T00:20:02;14.12;65.64
75985;DHT22;65033;44.660;37.758;2023-10-31T00:21:06;14.07;66.08
75985;DHT22;65033;44.660;37.758;2023-10-31T00:22:09;13.99;66.21
75985;DHT22;65033;44.660;37.758;2023-10-31T00:23:14;13.91;66.71
75985;DHT22;65033;44.660;37.758;2023-10-31T00:24:18;13.81;67.30
75985;DHT22;65033;44.660;37.758;2023-10-31T00:25:23;13.71;67.56
75985;DHT22;65033;44.660;37.758;2023-10-31T00:26:27;13.60;68.03
75985;DHT22;65033;44.660;37.758;2023-10-31T00:27:30;13.54;68.50
75985;DHT22;65033;44.660;37.758;2023-10-31T00:28:34;13.49;68.29
75985;DHT22;65033;44.660;37.758;2023-10-31T00:29:38;13.47;68.04
75985;DHT22;65033;44.660;37.758;2023-10-31T00:30:43;13.50;67.98
75985;DHT22;65033;44.660;37.758;2023-10-31T00:31:47;13.43;68.35
75985;DHT22;65033;44.660;37.758;2023-10-31T00:32:51;13.36;68.71
75985;DHT22;65033;44.660;37.758;2023-10-31T00:33:54;13.29;68.79
75985;DHT22;65033;44.660;37.758;2023-10-31T00:34:58;13.24;69.45
75985;DHT22;65033;44.660;37.758;2023-10-31T00:36:03;13.18;69.69
75985;DHT22;65033;44.660;37.758;2023-10-31T00:37:07;13.12;70.35
75985;DHT22;65033;44.660;37.758;2023-10-31T00:38:11;13.11;70.48
75985;DHT22;65033;44.660;37.758;2023-10-31T00:39:15;13.12;70.45
75985;DHT22;65033;44.660;37.758;2023-10-31T00:40:18;13.16;70.49
75985;DHT22;65033;44.660;37.758;2023-10-31T00:41:24;13.14;70.20
75985;DHT22;65033;44.660;37.758;2023-10-31T00:42:27;13.12;70.03
75985;DHT22;65033;44.660;37.758;2023-10-31T00:43:31;13.14;69.85
75985;DHT22;65033;44.660;37.758;2023-10-31T00:44:35;13.18;69.66
75985;DHT22;65033;44.660;37.758;2023-10-31T00:45:38;13.24;69.42
75985;DHT22;65033;44.660;37.758;2023-10-31T00:46:42;13.33;68.72
75985;DHT22;65033;44.660;37.758;2023-10-31T00:47:47;13.51;67.76
75985;DHT22;65033;44.660;37.758;2023-10-31T00:48:50;13.64;67.36
75985;DHT22;65033;44.660;37.758;2023-10-31T00:49:54;13.78;66.88
75985;DHT22;65033;44.660;37.758;2023-10-31T00:50:58;13.95;65.85
75985;DHT22;65033;44.660;37.758;2023-10-31T00:52:02;14.19;64.77
75985;DHT22;65033;44.660;37.758;2023-10-31T00:53:06;14.36;64.22
75985;DHT22;65033;44.660;37.758;2023-10-31T00:54:10;14.49;63.77
75985;DHT22;65033;44.660;37.758;2023-10-31T00:55:13;14.66;63.14
75985;DHT22;65033;44.660;37.758;2023-10-31T00:56:17;14.82;62.24
75985;DHT22;65033;44.660;37.758;2023-10-31T00:57:22;14.97;61.73
75985;DHT22;65033;44.660;37.758;2023-10-31T00:58:26;15.03;61.43
75985;DHT22;65033;44.660;37.758;2023-10-31T00:59:29;15.08;61.14
75985;DHT22;65033;44.660;37.758;2023-10-31T01:00:33;15.09;60.96
75985;DHT22;65033;44.660;37.758;2023-10-31T01:01:38;15.12;60.78
75985;DHT22;65033;44.660;37.758;2023-10-31T01:02:41;15.14;60.69
75985;DHT22;65033;44.660;37.758;2023-10-31T01:03:45;15.15;60.41
75985;DHT22;65033;44.660;37.758;2023-10-31T01:04:48;15.17;60.26
75985;DHT22;65033;44.660;37.758;2023-10-31T01:05:52;15.21;60.12
75985;DHT22;65033;44.660;37.758;2023-10-31T01:06:56;15.24;59.96
75985;DHT22;65033;44.660;37.758;2023-10-31T01:07:59;15.28;59.74
75985;DHT22;65033;44.660;37.758;2023-10-31T01:09:03;15.34;59.67
75985;DHT22;65033;44.660;37.758;2023-10-31T01:10:07;15.37;59.63
75985;DHT22;65033;44.660;37.758;2023-10-31T01:11:12;15.39;59.72
75985;DHT22;65033;44.660;37.758;2023-10-31T01:12:15;15.40;59.60
75985;DHT22;65033;44.660;37.758;2023-10-31T01:13:20;15.38;60.56
75985;DHT22;65033;44.660;37.758;2023-10-31T01:14:24;15.28;61.15
75985;DHT22;65033;44.660;37.758;2023-10-31T01:15:28;15.22;61.50
75985;DHT22;65033;44.660;37.758;2023-10-31T01:16:31;15.15;62.04
75985;DHT22;65033;44.660;37.758;2023-10-31T01:17:35;15.11;61.99
75985;DHT22;65033;44.660;37.758;2023-10-31T01:18:39;14.94;62.51
75985;DHT22;65033;44.660;37.758;2023-10-31T01:19:42;14.68;63.15
75985;DHT22;65033;44.660;37.758;2023-10-31T01:20:46;14.45;64.08
75985;DHT22;65033;44.660;37.758;2023-10-31T01:21:50;14.23;64.61
75985;DHT22;65033;44.660;37.758;2023-10-31T01:22:53;14.05;65.32
75985;DHT22;65033;44.660;37.758;2023-10-31T01:23:58;13.89;66.30
75985;DHT22;65033;44.660;37.758;2023-10-31T01:25:02;13.74;66.85
75985;DHT22;65033;44.660;37.758;2023-10-31T01:26:06;13.56;67.59
75985;DHT22;65033;44.660;37.758;2023-10-31T01:27:10;13.44;68.42
75985;DHT22;65033;44.660;37.758;2023-10-31T01:28:14;13.32;68.52
75985;DHT22;65033;44.660;37.758;2023-10-31T01:29:19;13.22;69.07
75985;DHT22;65033;44.660;37.758;2023-10-31T01:30:23;13.14;69.44
75985;DHT22;65033;44.660;37.758;2023-10-31T01:31:26;13.09;69.86
75985;DHT22;65033;44.660;37.758;2023-10-31T01:32:30;13.06;69.77
75985;DHT22;65033;44.660;37.758;2023-10-31T01:33:34;13.07;69.49
75985;DHT22;65033;44.660;37.758;2023-10-31T01:34:37;13.15;69.46
75985;DHT22;65033;44.660;37.758;2023-10-31T01:35:41;13.24;69.25
75985;DHT22;65033;44.660;37.758;2023-10-31T01:36:44;13.33;68.66
75985;DHT22;65033;44.660;37.758;2023-10-31T01:37:48;13.49;67.74
75985;DHT22;65033;44.660;37.758;2023-10-31T01:38:52;13.60;67.27
75985;DHT22;65033;44.660;37.758;2023-10-31T01:39:56;13.68;66.92
75985;DHT22;65033;44.660;37.758;2023-10-31T01:41:00;13.80;66.32
75985;DHT22;65033;44.660;37.758;2023-10-31T01:42:04;13.93;65.66
75985;DHT22;65033;44.660;37.758;2023-10-31T01:43:08;14.03;65.20
75985;DHT22;65033;44.660;37.758;2023-10-31T01:44:12;14.12;64.79
75985;DHT22;65033;44.660;37.758;2023-10-31T01:45:17;14.20;64.01
75985;DHT22;65033;44.660;37.758;2023-10-31T01:46:21;14.35;63.22
75985;DHT22;65033;44.660;37.758;2023-10-31T01:47:25;14.47;62.97
75985;DHT22;65033;44.660;37.758;2023-10-31T01:48:31;14.55;62.60
75985;DHT22;65033;44.660;37.758;2023-10-31T01:49:35;14.64;62.05
75985;DHT22;65033;44.660;37.758;2023-10-31T01:50:40;14.70;61.68
75985;DHT22;65033;44.660;37.758;2023-10-31T01:51:44;14.77;61.46
75985;DHT22;65033;44.660;37.758;2023-10-31T01:52:48;14.77;61.83
75985;DHT22;65033;44.660;37.758;2023-10-31T01:53:52;14.77;61.63
75985;DHT22;65033;44.660;37.758;2023-10-31T01:54:57;14.79;61.88
75985;DHT22;65033;44.660;37.758;2023-10-31T01:56:01;14.79;61.71
75985;DHT22;65033;44.660;37.758;2023-10-31T01:57:05;14.79;61.69
75985;DHT22;65033;44.660;37.758;2023-10-31T01:58:14;14.79;61.60
75985;DHT22;65033;44.660;37.758;2023-10-31T01:59:18;14.75;61.70
75985;DHT22;65033;44.660;37.758;2023-10-31T02:00:23;14.72;61.80
75985;DHT22;65033;44.660;37.758;2023-10-31T02:01:29;14.70;61.99
75985;DHT22;65033;44.660;37.758;2023-10-31T02:02:33;14.71;61.69
75985;DHT22;65033;44.660;37.758;2023-10-31T02:03:38;14.73;61.55
75985;DHT22;65033;44.660;37.758;2023-10-31T02:04:42;14.78;61.68
75985;DHT22;65033;44.660;37.758;2023-10-31T02:05:46;14.82;61.34
75985;DHT22;65033;44.660;37.758;2023-10-31T02:06:49;14.85;61.16
75985;DHT22;65033;44.660;37.758;2023-10-31T02:07:54;14.88;60.98
75985;DHT22;65033;44.660;37.758;2023-10-31T02:08:58;14.94;60.71
75985;DHT22;65033;44.660;37.758;2023-10-31T02:10:01;14.99;60.49
75985;DHT22;65033;44.660;37.758;2023-10-31T02:11:06;15.04;60.38
75985;DHT22;65033;44.660;37.758;2023-10-31T02:12:31;15.16;59.70
75985;DHT22;65033;44.660;37.758;2023-10-31T02:13:36;15.22;59.54
75985;DHT22;65033;44.660;37.758;2023-10-31T02:14:40;15.26;59.27
75985;DHT22;65033;44.660;37.758;2023-10-31T02:15:45;15.28;59.47
75985;DHT22;65033;44.660;37.758;2023-10-31T02:16:49;15.31;59.25
75985;DHT22;65033;44.660;37.758;2023-10-31T02:17:53;15.36;59.12
75985;DHT22;65033;44.660;37.758;2023-10-31T02:18:56;15.39;59.13
75985;DHT22;65033;44.660;37.758;2023-10-31T02:20:00;15.41;58.77
75985;DHT22;65033;44.660;37.758;2023-10-31T02:21:04;15.44;58.89
75985;DHT22;65033;44.660;37.758;2023-10-31T02:22:09;15.47;58.64
75985;DHT22;65033;44.660;37.758;2023-10-31T02:23:15;15.48;58.70
75985;DHT22;65033;44.660;37.758;2023-10-31T02:24:19;15.52;58.64
75985;DHT22;65033;44.660;37.758;2023-10-31T02:25:22;15.55;58.66
75985;DHT22;65033;44.660;37.758;2023-10-31T02:26:29;15.53;58.77
75985;DHT22;65033;44.660;37.758;2023-10-31T02:27:33;15.56;58.58
75985;DHT22;65033;44.660;37.758;2023-10-31T02:28:37;15.58;58.45
75985;DHT22;65033;44.660;37.758;2023-10-31T02:29:41;15.58;58.40
75985;DHT22;65033;44.660;37.758;2023-10-31T02:30:46;15.59;58.24
75985;DHT22;65033;44.660;37.758;2023-10-31T02:31:50;15.60;58.38
75985;DHT22;65033;44.660;37.758;2023-10-31T02:32:54;15.62;58.12
75985;DHT22;65033;44.660;37.758;2023-10-31T02:33:58;15.63;58.08
75985;DHT22;65033;44.660;37.758;2023-10-31T02:35:01;15.67;57.94
75985;DHT22;65033;44.660;37.758;2023-10-31T02:36:05;15.70;57.64
75985;DHT22;65033;44.660;37.758;2023-10-31T02:37:11;15.76;57.35
75985;DHT22;65033;44.660;37.758;2023-10-31T02:38:14;15.83;57.28
75985;DHT22;65033;44.660;37.758;2023-10-31T02:39:18;15.86;56.94
75985;DHT22;65033;44.660;37.758;2023-10-31T02:40:22;15.91;56.97
75985;DHT22;65033;44.660;37.758;2023-10-31T02:41:25;15.98;56.73
75985;DHT22;65033;44.660;37.758;2023-10-31T02:42:29;15.98;56.90
75985;DHT22;65033;44.660;37.758;2023-10-31T02:43:33;15.93;57.30
75985;DHT22;65033;44.660;37.758;2023-10-31T02:44:38;15.88;57.64
75985;DHT22;65033;44.660;37.758;2023-10-31T02:45:41;15.88;56.83
75985;DHT22;65033;44.660;37.758;2023-10-31T02:46:45;15.86;56.97
75985;DHT22;65033;44.660;37.758;2023-10-31T02:47:48;15.88;56.84
75985;DHT22;65033;44.660;37.758;2023-10-31T02:48:54;15.85;56.92
75985;DHT22;65033;44.660;37.758;2023-10-31T02:49:57;15.85;56.90
75985;DHT22;65033;44.660;37.758;2023-10-31T02:51:02;15.86;56.74
75985;DHT22;65033;44.660;37.758;2023-10-31T02:52:06;15.87;56.61
75985;DHT22;65033;44.660;37.758;2023-10-31T02:53:11;15.85;57.06
75985;DHT22;65033;44.660;37.758;2023-10-31T02:54:15;15.85;56.81
75985;DHT22;65033;44.660;37.758;2023-10-31T02:55:19;15.82;56.78
75985;DHT22;65033;44.660;37.758;2023-10-31T02:56:22;15.78;57.25
75985;DHT22;65033;44.660;37.758;2023-10-31T02:57:26;15.75;57.36
75985;DHT22;65033;44.660;37.758;2023-10-31T02:58:30;15.72;57.45
75985;DHT22;65033;44.660;37.758;2023-10-31T02:59:33;15.71;57.67
75985;DHT22;65033;44.660;37.758;2023-10-31T03:00:37;15.69;57.57
75985;DHT22;65033;44.660;37.758;2023-10-31T03:01:42;15.66;57.61
75985;DHT22;65033;44.660;37.758;2023-10-31T03:02:46;15.63;57.60
75985;DHT22;65033;44.660;37.758;2023-10-31T03:03:49;15.62;57.83
75985;DHT22;65033;44.660;37.758;2023-10-31T03:04:54;15.56;58.46
75985;DHT22;65033;44.660;37.758;2023-10-31T03:05:57;15.39;58.85
75985;DHT22;65033;44.660;37.758;2023-10-31T03:07:01;15.21;59.54
75985;DHT22;65033;44.660;37.758;2023-10-31T03:08:05;14.98;60.67
75985;DHT22;65033;44.660;37.758;2023-10-31T03:09:12;14.80;61.21
75985;DHT22;65033;44.660;37.758;2023-10-31T03:10:15;14.63;61.75
75985;DHT22;65033;44.660;37.758;2023-10-31T03:11:22;14.43;62.33
75985;DHT22;65033;44.660;37.758;2023-10-31T03:12:26;14.26;62.74
75985;DHT22;65033;44.660;37.758;2023-10-31T03:13:29;14.15;63.34
75985;DHT22;65033;44.660;37.758;2023-10-31T03:14:33;14.09;63.70
75985;DHT22;65033;44.660;37.758;2023-10-31T03:15:36;14.00;63.89
75985;DHT22;65033;44.660;37.758;2023-10-31T03:16:40;13.91;64.47
75985;DHT22;65033;44.660;37.758;2023-10-31T03:17:44;13.80;64.84
75985;DHT22;65033;44.660;37.758;2023-10-31T03:18:48;13.66;65.87
75985;DHT22;65033;44.660;37.758;2023-10-31T03:19:51;13.55;65.78
75985;DHT22;65033;44.660;37.758;2023-10-31T03:20:55;13.52;65.96
75985;DHT22;65033;44.660;37.758;2023-10-31T03:21:58;13.48;66.00
75985;DHT22;65033;44.660;37.758;2023-10-31T03:23:02;13.41;66.58
75985;DHT22;65033;44.660;37.758;2023-10-31T03:24:06;13.35;66.70
75985;DHT22;65033;44.660;37.758;2023-10-31T03:25:13;13.27;67.00
75985;DHT22;65033;44.660;37.758;2023-10-31T03:26:16;13.18;67.55
75985;DHT22;65033;44.660;37.758;2023-10-31T03:27:20;13.12;67.50
75985;DHT22;65033;44.660;37.758;2023-10-31T03:28:24;13.07;67.84
75985;DHT22;65033;44.660;37.758;2023-10-31T03:29:27;13.01;68.33
75985;DHT22;65033;44.660;37.758;2023-10-31T03:30:31;12.95;68.80
75985;DHT22;65033;44.660;37.758;2023-10-31T03:31:35;12.89;69.13
75985;DHT22;65033;44.660;37.758;2023-10-31T03:32:39;12.85;68.94
75985;DHT22;65033;44.660;37.758;2023-10-31T03:33:42;12.86;68.87
75985;DHT22;65033;44.660;37.758;2023-10-31T03:34:46;12.93;68.37
75985;DHT22;65033;44.660;37.758;2023-10-31T03:35:50;13.06;67.30
75985;DHT22;65033;44.660;37.758;2023-10-31T03:36:53;13.09;67.57
75985;DHT22;65033;44.660;37.758;2023-10-31T03:37:57;13.31;65.82
75985;DHT22;65033;44.660;37.758;2023-10-31T03:39:01;13.47;65.48
75985;DHT22;65033;44.660;37.758;2023-10-31T03:40:06;13.60;64.47
75985;DHT22;65033;44.660;37.758;2023-10-31T03:41:13;13.78;63.23
75985;DHT22;65033;44.660;37.758;2023-10-31T03:42:16;13.94;62.94
75985;DHT22;65033;44.660;37.758;2023-10-31T03:43:20;14.07;62.58
75985;DHT22;65033;44.660;37.758;2023-10-31T03:44:26;14.11;62.49
75985;DHT22;65033;44.660;37.758;2023-10-31T03:45:29;14.12;61.97
75985;DHT22;65033;44.660;37.758;2023-10-31T03:46:35;14.21;61.43
75985;DHT22;65033;44.660;37.758;2023-10-31T03:47:38;14.29;61.44
75985;DHT22;65033;44.660;37.758;2023-10-31T03:48:42;14.36;60.95
75985;DHT22;65033;44.660;37.758;2023-10-31T03:49:46;14.37;60.79
75985;DHT22;65033;44.660;37.758;2023-10-31T03:50:49;14.39;61.46
75985;DHT22;65033;44.660;37.758;2023-10-31T03:51:53;14.42;61.19
75985;DHT22;65033;44.660;37.758;2023-10-31T03:52:57;14.45;59.98
75985;DHT22;65033;44.660;37.758;2023-10-31T03:54:01;14.50;59.95
75985;DHT22;65033;44.660;37.758;2023-10-31T03:55:06;14.54;59.91
75985;DHT22;65033;44.660;37.758;2023-10-31T03:56:09;14.58;59.24
75985;DHT22;65033;44.660;37.758;2023-10-31T03:57:16;14.62;59.33
75985;DHT22;65033;44.660;37.758;2023-10-31T03:58:19;14.69;58.66
75985;DHT22;65033;44.660;37.758;2023-10-31T03:59:23;14.72;58.84
75985;DHT22;65033;44.660;37.758;2023-10-31T04:00:27;14.75;58.64
75985;DHT22;65033;44.660;37.758;2023-10-31T04:01:31;14.78;58.54
75985;DHT22;65033;44.660;37.758;2023-10-31T04:02:36;15.06;68.26
75985;DHT22;65033;44.660;37.758;2023-10-31T04:03:40;15.25;61.24
75985;DHT22;65033;44.660;37.758;2023-10-31T04:04:44;15.33;56.39
75985;DHT22;65033;44.660;37.758;2023-10-31T04:05:47;15.38;55.63
75985;DHT22;65033;44.660;37.758;2023-10-31T04:06:51;15.41;55.74
75985;DHT22;65033;44.660;37.758;2023-10-31T04:07:55;15.45;55.31
75985;DHT22;65033;44.660;37.758;2023-10-31T04:08:58;15.49;54.95
75985;DHT22;65033;44.660;37.758;2023-10-31T04:10:02;15.53;54.97
75985;DHT22;65033;44.660;37.758;2023-10-31T04:11:06;15.56;54.36
75985;DHT22;65033;44.660;37.758;2023-10-31T04:12:10;15.57;54.46
75985;DHT22;65033;44.660;37.758;2023-10-31T04:13:15;15.59;54.55
75985;DHT22;65033;44.660;37.758;2023-10-31T04:14:19;15.57;54.53
75985;DHT22;65033;44.660;37.758;2023-10-31T04:15:24;15.53;54.42
75985;DHT22;65033;44.660;37.758;2023-10-31T04:16:27;15.47;54.81
75985;DHT22;65033;44.660;37.758;2023-10-31T04:17:31;15.41;55.06
75985;DHT22;65033;44.660;37.758;2023-10-31T04:18:36;15.36;54.82
75985;DHT22;65033;44.660;37.758;2023-10-31T04:19:40;15.32;55.26
75985;DHT22;65033;44.660;37.758;2023-10-31T04:20:44;15.32;54.88
75985;DHT22;65033;44.660;37.758;2023-10-31T04:21:48;15.33;54.56
75985;DHT22;65033;44.660;37.758;2023-10-31T04:22:51;15.39;53.74
75985;DHT22;65033;44.660;37.758;2023-10-31T04:23:55;15.45;53.01
75985;DHT22;65033;44.660;37.758;2023-10-31T04:24:59;15.52;53.30
75985;DHT22;65033;44.660;37.758;2023-10-31T04:26:03;15.56;52.98
75985;DHT22;65033;44.660;37.758;2023-10-31T04:27:07;15.53;54.07
75985;DHT22;65033;44.660;37.758;2023-10-31T04:28:14;15.46;53.54
75985;DHT22;65033;44.660;37.758;2023-10-31T04:29:18;15.43;53.81
75985;DHT22;65033;44.660;37.758;2023-10-31T04:30:22;15.43;54.05
75985;DHT22;65033;44.660;37.758;2023-10-31T04:31:26;15.45;53.49
75985;DHT22;65033;44.660;37.758;2023-10-31T04:32:31;15.46;53.55
75985;DHT22;65033;44.660;37.758;2023-10-31T04:33:34;15.52;52.85
75985;DHT22;65033;44.660;37.758;2023-10-31T04:34:38;15.58;52.63
75985;DHT22;65033;44.660;37.758;2023-10-31T04:35:42;15.63;52.65
75985;DHT22;65033;44.660;37.758;2023-10-31T04:36:45;15.68;52.36
75985;DHT22;65033;44.660;37.758;2023-10-31T04:37:49;15.71;52.29
75985;DHT22;65033;44.660;37.758;2023-10-31T04:38:54;15.78;52.13
75985;DHT22;65033;44.660;37.758;2023-10-31T04:39:57;15.85;51.05
75985;DHT22;65033;44.660;37.758;2023-10-31T04:41:01;15.99;50.82
75985;DHT22;65033;44.660;37.758;2023-10-31T04:42:04;16.08;50.22
75985;DHT22;65033;44.660;37.758;2023-10-31T04:43:08;16.22;49.35
75985;DHT22;65033;44.660;37.758;2023-10-31T04:44:13;16.36;51.64
75985;DHT22;65033;44.660;37.758;2023-10-31T04:45:17;16.77;65.37
75985;DHT22;65033;44.660;37.758;2023-10-31T04:46:21;17.24;65.46
75985;DHT22;65033;44.660;37.758;2023-10-31T04:47:25;17.41;46.48
75985;DHT22;65033;44.660;37.758;2023-10-31T04:48:28;17.44;46.16
75985;DHT22;65033;44.660;37.758;2023-10-31T04:49:34;17.41;46.07
75985;DHT22;65033;44.660;37.758;2023-10-31T04:50:38;17.40;46.19
75985;DHT22;65033;44.660;37.758;2023-10-31T04:51:42;17.35;47.45
75985;DHT22;65033;44.660;37.758;2023-10-31T04:52:46;17.24;49.67
75985;DHT22;65033;44.660;37.758;2023-10-31T04:53:53;17.14;49.96
75985;DHT22;65033;44.660;37.758;2023-10-31T04:54:57;17.03;48.50
75985;DHT22;65033;44.660;37.758;2023-10-31T04:56:04;17.02;49.86
75985;DHT22;65033;44.660;37.758;2023-10-31T04:57:09;16.96;48.20
75985;DHT22;65033;44.660;37.758;2023-10-31T04:58:13;17.03;45.60
75985;DHT22;65033;44.660;37.758;2023-10-31T04:59:18;17.06;47.63
75985;DHT22;65033;44.660;37.758;2023-10-31T05:00:21;17.03;49.08
75985;DHT22;65033;44.660;37.758;2023-10-31T05:01:25;17.01;46.92
75985;DHT22;65033;44.660;37.758;2023-10-31T05:02:30;17.04;46.51
75985;DHT22;65033;44.660;37.758;2023-10-31T05:03:37;17.14;46.52
75985;DHT22;65033;44.660;37.758;2023-10-31T05:04:41;17.22;46.22
75985;DHT22;65033;44.660;37.758;2023-10-31T05:05:45;17.28;47.43
75985;DHT22;65033;44.660;37.758;2023-10-31T05:06:49;17.28;47.80
75985;DHT22;65033;44.660;37.758;2023-10-31T05:07:52;17.33;45.90
75985;DHT22;65033;44.660;37.758;2023-10-31T05:08:56;17.43;46.20
75985;DHT22;65033;44.660;37.758;2023-10-31T05:10:00;17.52;45.93
75985;DHT22;65033;44.660;37.758;2023-10-31T05:11:04;17.59;46.22
75985;DHT22;65033;44.660;37.758;2023-10-31T05:12:08;17.61;46.64
75985;DHT22;65033;44.660;37.758;2023-10-31T05:13:11;17.68;46.36
75985;DHT22;65033;44.660;37.758;2023-10-31T05:14:17;17.75;46.28
75985;DHT22;65033;44.660;37.758;2023-10-31T05:15:20;17.81;46.12
75985;DHT22;65033;44.660;37.758;2023-10-31T05:16:24;17.88;45.77
75985;DHT22;65033;44.660;37.758;2023-10-31T05:17:28;17.95;45.79
75985;DHT22;65033;44.660;37.758;2023-10-31T05:18:32;18.03;46.47
75985;DHT22;65033;44.660;37.758;2023-10-31T05:19:35;18.26;50.07
75985;DHT22;65033;44.660;37.758;2023-10-31T05:20:39;18.63;51.21
75985;DHT22;65033;44.660;37.758;2023-10-31T05:21:43;18.68;44.59
75985;DHT22;65033;44.660;37.758;2023-10-31T05:22:46;18.73;44.63
75985;DHT22;65033;44.660;37.758;2023-10-31T05:23:50;18.76;44.01
75985;DHT22;65033;44.660;37.758;2023-10-31T05:24:54;18.81;44.11
75985;DHT22;65033;44.660;37.758;2023-10-31T05:25:58;18.87;44.08
75985;DHT22;65033;44.660;37.758;2023-10-31T05:27:03;18.93;43.48
75985;DHT22;65033;44.660;37.758;2023-10-31T05:28:08;18.96;43.61
75985;DHT22;65033;44.660;37.758;2023-10-31T05:29:12;18.99;45.25
75985;DHT22;65033;44.660;37.758;2023-10-31T05:30:17;19.01;43.96
75985;DHT22;65033;44.660;37.758;2023-10-31T05:31:21;19.07;43.86
75985;DHT22;65033;44.660;37.758;2023-10-31T05:32:24;19.11;43.69
75985;DHT22;65033;44.660;37.758;2023-10-31T05:33:28;19.16;43.51
75985;DHT22;65033;44.660;37.758;2023-10-31T05:34:31;19.21;43.85
75985;DHT22;65033;44.660;37.758;2023-10-31T05:35:35;19.25;43.61
75985;DHT22;65033;44.660;37.758;2023-10-31T05:36:39;19.30;43.53
75985;DHT22;65033;44.660;37.758;2023-10-31T05:37:45;19.35;43.35
75985;DHT22;65033;44.660;37.758;2023-10-31T05:38:49;19.40;42.79
75985;DHT22;65033;44.660;37.758;2023-10-31T05:39:53;19.45;42.09
75985;DHT22;65033;44.660;37.758;2023-10-31T05:40:57;19.51;43.22
75985;DHT22;65033;44.660;37.758;2023-10-31T05:42:01;19.57;41.81
75985;DHT22;65033;44.660;37.758;2023-10-31T05:43:05;19.62;42.11
75985;DHT22;65033;44.660;37.758;2023-10-31T05:44:09;19.69;40.92
75985;DHT22;65033;44.660;37.758;2023-10-31T05:45:14;19.75;40.40
75985;DHT22;65033;44.660;37.758;2023-10-31T05:46:19;19.82;40.91
75985;DHT22;65033;44.660;37.758;2023-10-31T05:47:23;19.87;38.91
75985;DHT22;65033;44.660;37.758;2023-10-31T05:48:27;19.95;39.64
75985;DHT22;65033;44.660;37.758;2023-10-31T05:49:33;20.02;39.17
75985;DHT22;65033;44.660;37.758;2023-10-31T05:50:37;20.07;39.17
75985;DHT22;65033;44.660;37.758;2023-10-31T05:51:40;20.15;39.51
75985;DHT22;65033;44.660;37.758;2023-10-31T05:52:44;20.19;39.32
75985;DHT22;65033;44.660;37.758;2023-10-31T05:53:48;20.26;35.57
75985;DHT22;65033;44.660;37.758;2023-10-31T05:54:52;20.35;36.29
75985;DHT22;65033;44.660;37.758;2023-10-31T05:55:56;20.43;35.39
75985;DHT22;65033;44.660;37.758;2023-10-31T05:56:59;20.50;36.36
75985;DHT22;65033;44.660;37.758;2023-10-31T05:58:03;20.58;35.19
75985;DHT22;65033;44.660;37.758;2023-10-31T05:59:07;20.65;35.32
75985;DHT22;65033;44.660;37.758;2023-10-31T06:00:11;20.72;35.53
75985;DHT22;65033;44.660;37.758;2023-10-31T06:01:16;20.78;33.48
75985;DHT22;65033;44.660;37.758;2023-10-31T06:02:21;20.86;32.51
75985;DHT22;65033;44.660;37.758;2023-10-31T06:03:25;20.94;33.07
75985;DHT22;65033;44.660;37.758;2023-10-31T06:04:28;21.00;32.52
75985;DHT22;65033;44.660;37.758;2023-10-31T06:05:32;21.05;34.08
75985;DHT22;65033;44.660;37.758;2023-10-31T06:06:37;21.11;32.06
75985;DHT22;65033;44.660;37.758;2023-10-31T06:07:42;21.19;31.83
75985;DHT22;65033;44.660;37.758;2023-10-31T06:08:47;21.27;31.16
75985;DHT22;65033;44.660;37.758;2023-10-31T06:09:50;21.31;31.06
75985;DHT22;65033;44.660;37.758;2023-10-31T06:10:57;21.48;38.14
75985;DHT22;65033;44.660;37.758;2023-10-31T06:12:00;21.68;43.49
75985;DHT22;65033;44.660;37.758;2023-10-31T06:13:04;21.81;33.99
75985;DHT22;65033;44.660;37.758;2023-10-31T06:14:08;21.87;30.35
75985;DHT22;65033;44.660;37.758;2023-10-31T06:15:14;21.87;29.42
75985;DHT22;65033;44.660;37.758;2023-10-31T06:16:18;21.93;29.21
75985;DHT22;65033;44.660;37.758;2023-10-31T06:17:23;21.94;29.67
75985;DHT22;65033;44.660;37.758;2023-10-31T06:18:28;21.97;29.19
75985;DHT22;65033;44.660;37.758;2023-10-31T06:19:34;22.03;29.55
75985;DHT22;65033;44.660;37.758;2023-10-31T06:20:38;22.07;28.92
75985;DHT22;65033;44.660;37.758;2023-10-31T06:21:43;22.09;28.74
75985;DHT22;65033;44.660;37.758;2023-10-31T06:22:47;22.14;28.91
75985;DHT22;65033;44.660;37.758;2023-10-31T06:23:50;22.19;27.95
75985;DHT22;65033;44.660;37.758;2023-10-31T06:24:54;22.24;27.86
75985;DHT22;65033;44.660;37.758;2023-10-31T06:25:57;22.31;28.92
75985;DHT22;65033;44.660;37.758;2023-10-31T06:27:01;22.35;28.47
75985;DHT22;65033;44.660;37.758;2023-10-31T06:28:06;22.39;28.05
75985;DHT22;65033;44.660;37.758;2023-10-31T06:29:09;22.42;28.15
75985;DHT22;65033;44.660;37.758;2023-10-31T06:30:19;22.46;28.69
75985;DHT22;65033;44.660;37.758;2023-10-31T06:31:25;22.49;27.71
75985;DHT22;65033;44.660;37.758;2023-10-31T06:32:30;22.55;27.67
75985;DHT22;65033;44.660;37.758;2023-10-31T06:33:34;22.57;27.16
75985;DHT22;65033;44.660;37.758;2023-10-31T06:34:38;22.62;27.83
75985;DHT22;65033;44.660;37.758;2023-10-31T06:35:41;22.67;27.52
75985;DHT22;65033;44.660;37.758;2023-10-31T06:36:45;22.70;27.04
75985;DHT22;65033;44.660;37.758;2023-10-31T06:37:49;22.75;26.89
75985;DHT22;65033;44.660;37.758;2023-10-31T06:38:52;22.80;26.91